Time;durP1;ratioP1;P1;durP2;ratioP2;P2;SDS_P1;SDS_P2;PMS_P1;PMS_P2;Temp;Humidity;BMP_temperature;BMP_pressure;BME280_temperature;BME280_humidity;BME280_pressure;Samples;Min_cycle;Max_cycle;Signal;HPM_P1;HPM_P2
2023/07/18 00:01:22;;;;;;;6.80;3.90;;;22.80;76.60;;;;;;5073236;28;20494;-71
2023/07/18 00:03:53;;;;;;;8.03;5.37;;;22.80;76.60;;;;;;5073695;28;20428;-71
2023/07/18 00:06:25;;;;;;;6.60;4.80;;;22.70;76.70;;;;;;5073303;28;20512;-70
2023/07/18 00:08:59;;;;;;;5.80;4.20;;;22.70;76.80;;;;;;5071249;28;20463;-70
2023/07/18 00:11:31;;;;;;;7.73;5.07;;;22.70;77.30;;;;;;5073540;28;20432;-71
2023/07/18 00:13:58;;;;;;;8.20;4.30;;;22.70;77.60;;;;;;5073150;28;20474;-71
2023/07/18 00:16:26;;;;;;;6.87;5.43;;;22.70;78.00;;;;;;5073158;28;20455;-71
2023/07/18 00:18:59;;;;;;;11.57;4.90;;;22.70;78.40;;;;;;5073144;28;20468;-71
2023/07/18 00:21:27;;;;;;;6.53;5.07;;;22.60;78.30;;;;;;5073307;28;20440;-71
2023/07/18 00:23:59;;;;;;;7.57;5.07;;;22.50;78.50;;;;;;5073378;28;20442;-71
2023/07/18 00:26:28;;;;;;;6.90;5.07;;;22.50;78.80;;;;;;5073107;28;20475;-71
2023/07/18 00:28:56;;;;;;;9.30;5.43;;;22.50;79.30;;;;;;5073346;28;20831;-70
2023/07/18 00:31:28;;;;;;;8.97;5.83;;;22.40;79.40;;;;;;5057522;28;20436;-71
2023/07/18 00:33:59;;;;;;;7.60;5.63;;;22.40;79.50;;;;;;5053251;28;20420;-71
2023/07/18 00:36:29;;;;;;;9.13;5.83;;;22.40;79.70;;;;;;5052948;28;20429;-71
2023/07/18 00:38:56;;;;;;;10.13;6.17;;;22.30;79.70;;;;;;5053173;28;20494;-71
2023/07/18 00:41:24;;;;;;;7.00;5.83;;;22.30;80.00;;;;;;5053063;28;20436;-71
2023/07/18 00:44:05;;;;;;;9.50;4.80;;;22.20;80.20;;;;;;5053169;28;20470;-71
2023/07/18 00:46:33;;;;;;;7.07;4.53;;;22.20;80.40;;;;;;5053239;28;20439;-71
2023/07/18 00:49:17;;;;;;;6.87;4.93;;;22.20;80.10;;;;;;5052880;28;20979;-71
2023/07/18 00:51:44;;;;;;;8.00;5.23;;;22.10;79.50;;;;;;5052635;28;20859;-71
2023/07/18 00:54:18;;;;;;;11.67;5.27;;;22.00;80.00;;;;;;5052700;28;20444;-70
2023/07/18 00:56:45;;;;;;;8.90;6.37;;;22.00;80.30;;;;;;5052701;28;20793;-72
2023/07/18 00:59:17;;;;;;;9.00;5.33;;;22.00;80.50;;;;;;5052284;28;20543;-70
2023/07/18 01:01:49;;;;;;;8.17;4.80;;;22.00;80.90;;;;;;5070186;28;20502;-72
2023/07/18 01:04:23;;;;;;;7.37;5.73;;;21.90;81.10;;;;;;5072736;28;20510;-71
2023/07/18 01:06:52;;;;;;;8.60;5.70;;;21.90;81.40;;;;;;5072741;28;20428;-71
2023/07/18 01:09:21;;;;;;;9.80;5.90;;;21.90;81.60;;;;;;5072617;28;20524;-71
2023/07/18 01:11:48;;;;;;;5.57;4.70;;;21.80;81.90;;;;;;5053024;28;20444;-73
2023/07/18 01:14:24;;;;;;;9.17;5.50;;;21.70;82.50;;;;;;5052703;28;20512;-71
2023/07/18 01:16:57;;;;;;;6.27;4.40;;;21.70;82.80;;;;;;5052603;28;20886;-71
2023/07/18 01:19:31;;;;;;;7.23;5.33;;;21.70;82.40;;;;;;5052953;28;20506;-71
2023/07/18 01:22:05;;;;;;;8.37;4.93;;;21.60;82.60;;;;;;5052912;28;20439;-71
2023/07/18 01:24:39;;;;;;;7.03;5.30;;;21.60;82.70;;;;;;5052830;28;20511;-71
2023/07/18 01:27:09;;;;;;;9.00;4.97;;;21.60;82.90;;;;;;5051857;28;20514;-71
2023/07/18 01:29:40;;;;;;;7.40;4.90;;;21.50;83.10;;;;;;5052544;28;20510;-71
2023/07/18 01:32:08;;;;;;;8.93;6.43;;;21.50;83.50;;;;;;5031912;28;20436;-72
2023/07/18 01:34:36;;;;;;;9.10;6.13;;;21.40;83.90;;;;;;5034709;28;20446;-71
2023/07/18 01:37:07;;;;;;;7.63;5.53;;;21.40;84.10;;;;;;5035991;28;20444;-71
2023/07/18 01:39:41;;;;;;;8.83;5.50;;;21.40;84.30;;;;;;5035597;28;20470;-71
2023/07/18 01:42:15;;;;;;;7.00;5.47;;;21.40;84.60;;;;;;5035850;28;20433;-71
2023/07/18 01:44:56;;;;;;;7.57;5.43;;;21.30;84.50;;;;;;5035955;28;20435;-71
2023/07/18 01:47:31;;;;;;;11.13;5.60;;;21.30;84.70;;;;;;5035901;28;20476;-71
2023/07/18 01:50:03;;;;;;;9.40;5.70;;;21.30;84.70;;;;;;5038279;28;20498;-71
2023/07/18 01:52:33;;;;;;;9.00;6.40;;;21.30;85.00;;;;;;5065849;28;20526;-71
2023/07/18 01:55:04;;;;;;;8.10;5.97;;;21.30;85.00;;;;;;5073861;28;20854;-71
2023/07/18 01:57:43;;;;;;;12.33;5.50;;;21.20;84.90;;;;;;5075490;28;20423;-71
2023/07/18 02:00:20;;;;;;;7.50;5.10;;;21.20;84.90;;;;;;5075545;28;20553;-71
2023/07/18 02:02:49;;;;;;;9.67;5.30;;;21.10;84.50;;;;;;5067595;28;20525;-71
2023/07/18 02:05:31;;;;;;;10.50;6.30;;;21.10;84.50;;;;;;5075497;28;20453;-70
2023/07/18 02:08:01;;;;;;;8.30;6.60;;;21.00;84.70;;;;;;5075424;28;20423;-71
2023/07/18 02:10:32;;;;;;;9.43;6.60;;;21.00;85.00;;;;;;5075138;28;20943;-71
2023/07/18 02:13:06;;;;;;;10.23;5.13;;;20.90;85.10;;;;;;5075016;28;20454;-70
2023/07/18 02:15:45;;;;;;;8.07;5.90;;;20.90;85.30;;;;;;5075666;28;20462;-71
2023/07/18 02:18:14;;;;;;;8.43;6.03;;;20.90;85.50;;;;;;5075541;28;20430;-70
2023/07/18 02:20:44;;;;;;;10.30;5.70;;;20.80;85.40;;;;;;5075566;28;20477;-71
2023/07/18 02:23:24;;;;;;;14.73;7.17;;;20.80;85.60;;;;;;5074810;28;20847;-71
2023/07/18 02:25:53;;;;;;;10.27;6.70;;;20.70;85.60;;;;;;5075448;28;20513;-70
2023/07/18 02:28:22;;;;;;;11.80;6.87;;;20.60;85.70;;;;;;5074988;28;20438;-71
2023/07/18 02:30:52;;;;;;;8.03;6.50;;;20.60;86.00;;;;;;5064974;28;20934;-72
2023/07/18 02:33:20;;;;;;;10.50;4.77;;;20.50;86.20;;;;;;5055190;28;20437;-71
2023/07/18 02:36:03;;;;;;;11.80;6.30;;;20.50;86.50;;;;;;5055139;28;20500;-70
2023/07/18 02:38:34;;;;;;;9.70;5.60;;;20.50;86.60;;;;;;5055348;28;20433;-71
2023/07/18 02:41:06;;;;;;;8.03;5.17;;;20.40;86.60;;;;;;5064643;28;20470;-71
2023/07/18 02:43:39;;;;;;;7.27;5.97;;;20.40;86.60;;;;;;5075108;28;20435;-71
2023/07/18 02:46:06;;;;;;;9.77;5.77;;;20.40;87.00;;;;;;5074540;28;20431;-71
2023/07/18 02:48:39;;;;;;;8.83;5.80;;;20.30;86.80;;;;;;5073240;28;20520;-71
2023/07/18 02:51:13;;;;;;;10.47;5.83;;;20.30;87.20;;;;;;5069878;28;20539;-72
2023/07/18 02:53:49;;;;;;;6.50;5.20;;;20.20;87.60;;;;;;5065682;28;20809;-71
2023/07/18 02:56:18;;;;;;;10.27;5.30;;;20.10;88.50;;;;;;5054829;28;20503;-71
2023/07/18 02:58:47;;;;;;;7.70;5.63;;;20.10;88.90;;;;;;5054343;28;20505;-70
2023/07/18 03:01:18;;;;;;;8.50;5.40;;;20.10;89.00;;;;;;5061200;28;20502;-70
2023/07/18 03:03:50;;;;;;;10.00;6.60;;;20.10;88.90;;;;;;5058504;28;20427;-71
2023/07/18 03:06:23;;;;;;;10.20;5.10;;;20.10;88.80;;;;;;5050604;28;20504;-71
2023/07/18 03:08:52;;;;;;;10.03;5.07;;;20.10;88.60;;;;;;5074092;28;20473;-71
2023/07/18 03:11:19;;;;;;;7.77;5.93;;;20.10;88.60;;;;;;5064350;28;20438;-71
2023/07/18 03:13:49;;;;;;;8.57;5.13;;;20.00;88.80;;;;;;5054332;28;20534;-71
2023/07/18 03:16:29;;;;;;;11.27;6.47;;;20.00;88.80;;;;;;5054409;28;20612;-70
2023/07/18 03:19:01;;;;;;;11.37;6.77;;;20.00;88.90;;;;;;5053991;28;20510;-71
2023/07/18 03:21:35;;;;;;;11.30;6.57;;;19.90;89.20;;;;;;5061940;28;20474;-71
2023/07/18 03:24:07;;;;;;;9.00;5.60;;;19.90;89.70;;;;;;5073934;28;20460;-71
2023/07/18 03:26:52;;;;;;;11.33;6.63;;;19.80;89.80;;;;;;5074198;28;20434;-70
2023/07/18 03:29:19;;;;;;;8.77;6.03;;;19.90;89.40;;;;;;5074139;28;20425;-71
2023/07/18 03:31:53;;;;;;;18.00;6.40;;;19.80;89.20;;;;;;5073353;28;20489;-70
2023/07/18 03:34:26;;;;;;;10.80;6.93;;;19.80;89.20;;;;;;5073804;28;20422;-70
2023/07/18 03:37:10;;;;;;;9.47;6.37;;;19.80;89.40;;;;;;5073980;28;20453;-71
2023/07/18 03:39:38;;;;;;;11.10;6.50;;;19.70;89.70;;;;;;5073584;28;20428;-71
2023/07/18 03:42:10;;;;;;;7.00;5.30;;;19.70;89.80;;;;;;5060852;28;20446;-71
2023/07/18 03:44:39;;;;;;;6.43;5.57;;;19.60;90.00;;;;;;5053847;28;20436;-75
2023/07/18 03:47:09;;;;;;;8.10;5.80;;;19.70;90.00;;;;;;5053943;28;20455;-71
2023/07/18 03:49:38;;;;;;;6.90;5.30;;;19.70;89.70;;;;;;5053461;28;20575;-71
2023/07/18 03:52:13;;;;;;;8.40;5.30;;;19.60;90.00;;;;;;5065744;28;20445;-71
2023/07/18 03:54:45;;;;;;;7.23;5.53;;;19.60;90.20;;;;;;5073485;28;20484;-71
2023/07/18 03:57:19;;;;;;;10.40;6.30;;;19.60;90.10;;;;;;5073030;28;20946;-70
2023/07/18 03:59:48;;;;;;;7.87;5.70;;;19.60;90.30;;;;;;5073290;28;20483;-71
2023/07/18 04:02:17;;;;;;;10.03;5.47;;;19.50;90.20;;;;;;5060060;28;20441;-71
2023/07/18 04:04:46;;;;;;;9.10;5.77;;;19.50;90.40;;;;;;5053648;28;20431;-70
2023/07/18 04:07:18;;;;;;;9.20;5.97;;;19.50;90.50;;;;;;5053662;28;20792;-71
2023/07/18 04:09:46;;;;;;;8.10;5.60;;;19.50;90.60;;;;;;5053181;28;20821;-70
2023/07/18 04:12:18;;;;;;;11.93;5.40;;;19.50;90.90;;;;;;5053293;28;20452;-69
2023/07/18 04:14:45;;;;;;;7.37;5.40;;;19.50;90.90;;;;;;5053394;28;20459;-69
2023/07/18 04:17:12;;;;;;;6.03;4.37;;;19.50;90.70;;;;;;5053385;28;20444;-69
2023/07/18 04:19:44;;;;;;;7.10;4.93;;;19.50;90.70;;;;;;5053117;28;20928;-69
2023/07/18 04:22:11;;;;;;;8.87;5.80;;;19.50;90.70;;;;;;5052851;28;20497;-69
2023/07/18 04:24:42;;;;;;;9.20;5.70;;;19.50;90.90;;;;;;5053028;28;20478;-69
2023/07/18 04:27:11;;;;;;;9.10;5.17;;;19.50;90.90;;;;;;5053430;28;20459;-69
2023/07/18 04:29:38;;;;;;;6.33;4.77;;;19.50;90.90;;;;;;5053261;28;20530;-69
2023/07/18 04:32:06;;;;;;;8.23;5.97;;;19.40;91.20;;;;;;5053123;28;20442;-69
2023/07/18 04:34:33;;;;;;;8.80;5.40;;;19.40;91.30;;;;;;5053296;28;20446;-69
2023/07/18 04:37:00;;;;;;;7.23;5.87;;;19.30;91.60;;;;;;5053362;28;20437;-69
2023/07/18 04:39:27;;;;;;;11.23;5.90;;;19.30;91.80;;;;;;5056853;28;20465;-70
2023/07/18 04:41:54;;;;;;;8.93;6.27;;;19.40;91.90;;;;;;5072115;28;20824;-69
2023/07/18 04:44:23;;;;;;;9.60;5.90;;;19.40;91.90;;;;;;5072721;28;20441;-70
2023/07/18 04:46:52;;;;;;;7.30;5.20;;;19.40;91.90;;;;;;5072860;28;20498;-69
2023/07/18 04:49:24;;;;;;;8.97;6.70;;;19.50;91.90;;;;;;5056751;28;20445;-69
2023/07/18 04:51:51;;;;;;;13.13;5.77;;;19.50;91.90;;;;;;5052610;28;20442;-69
2023/07/18 04:54:19;;;;;;;7.53;6.20;;;19.50;92.20;;;;;;5040414;28;20457;-69
2023/07/18 04:56:46;;;;;;;9.40;5.93;;;19.50;92.50;;;;;;5052097;28;20438;-69
2023/07/18 04:59:17;;;;;;;7.97;5.60;;;19.50;92.80;;;;;;5052199;28;20475;-70
2023/07/18 05:01:49;;;;;;;9.90;7.03;;;19.60;93.20;;;;;;5052116;28;20988;-69
2023/07/18 05:04:16;;;;;;;8.23;6.70;;;19.60;93.30;;;;;;5051974;28;20746;-69
2023/07/18 05:06:45;;;;;;;7.00;6.27;;;19.70;93.30;;;;;;5051562;28;20449;-69
2023/07/18 05:09:13;;;;;;;7.77;6.30;;;19.70;93.30;;;;;;5053186;28;20474;-69
2023/07/18 05:11:45;;;;;;;10.20;6.70;;;19.80;93.20;;;;;;5056213;28;20445;-70
2023/07/18 05:14:14;;;;;;;8.90;6.67;;;19.90;93.00;;;;;;5056244;28;20438;-69
2023/07/18 05:16:41;;;;;;;9.57;6.70;;;19.90;93.20;;;;;;5056107;28;20533;-69
2023/07/18 05:19:09;;;;;;;7.70;6.20;;;20.00;93.40;;;;;;5055460;28;20523;-69
2023/07/18 05:21:36;;;;;;;9.90;5.87;;;20.00;93.30;;;;;;5055902;28;20565;-69
2023/07/18 05:24:03;;;;;;;7.10;6.10;;;20.10;93.00;;;;;;5055940;28;20525;-69
2023/07/18 05:26:30;;;;;;;8.33;6.77;;;20.20;92.70;;;;;;5053748;28;20437;-69
2023/07/18 05:28:57;;;;;;;8.97;6.47;;;20.20;92.30;;;;;;5054665;28;20530;-70
2023/07/18 05:31:24;;;;;;;10.53;5.70;;;20.20;92.30;;;;;;5055883;28;20470;-69
2023/07/18 05:33:52;;;;;;;8.53;5.97;;;20.30;92.70;;;;;;5055419;28;20479;-69
2023/07/18 05:36:20;;;;;;;9.00;6.87;;;20.30;92.90;;;;;;5055477;28;20450;-69
2023/07/18 05:38:47;;;;;;;8.83;6.33;;;20.30;92.60;;;;;;5054915;28;20543;-70
2023/07/18 05:41:15;;;;;;;12.97;7.50;;;20.40;92.40;;;;;;5055198;28;20475;-69
2023/07/18 05:43:42;;;;;;;9.00;7.57;;;20.40;92.30;;;;;;5046936;28;20949;-69
2023/07/18 05:46:09;;;;;;;12.57;6.70;;;20.50;92.20;;;;;;5034928;28;20440;-69
2023/07/18 05:48:36;;;;;;;11.70;7.67;;;20.60;92.10;;;;;;5042500;28;21020;-70
2023/07/18 05:51:04;;;;;;;9.73;6.13;;;20.70;92.10;;;;;;5055308;28;20529;-69
2023/07/18 05:53:32;;;;;;;9.17;5.80;;;20.70;92.20;;;;;;5055138;28;20482;-69
2023/07/18 05:55:59;;;;;;;9.67;6.33;;;20.90;92.30;;;;;;5054615;28;20949;-69
2023/07/18 05:58:26;;;;;;;11.20;6.30;;;21.00;91.90;;;;;;5054065;28;20949;-70
2023/07/18 06:00:53;;;;;;;9.47;6.00;;;21.10;91.80;;;;;;5054671;28;20891;-73
2023/07/18 06:03:20;;;;;;;10.23;6.70;;;21.20;91.70;;;;;;5054082;28;20452;-70
2023/07/18 06:05:53;;;;;;;8.17;5.70;;;21.30;91.40;;;;;;5054675;28;20452;-71
2023/07/18 06:08:21;;;;;;;10.17;5.40;;;21.30;91.30;;;;;;5055216;28;20439;-69
2023/07/18 06:10:49;;;;;;;7.33;5.93;;;21.40;91.00;;;;;;5055025;28;20807;-69
2023/07/18 06:13:16;;;;;;;8.43;5.93;;;21.50;90.50;;;;;;5053892;28;20441;-69
2023/07/18 06:15:43;;;;;;;9.30;6.03;;;21.60;90.20;;;;;;5054460;28;21208;-69
2023/07/18 06:18:10;;;;;;;9.10;6.87;;;21.60;90.30;;;;;;5054489;28;20471;-69
2023/07/18 06:20:41;;;;;;;8.63;5.70;;;21.70;88.60;;;;;;5053959;28;20491;-69
2023/07/18 06:23:08;;;;;;;8.10;6.57;;;21.70;87.50;;;;;;5054704;28;20427;-71
2023/07/18 06:25:35;;;;;;;11.33;6.10;;;21.80;86.30;;;;;;5054415;28;20469;-69
2023/07/18 06:28:04;;;;;;;9.10;6.00;;;21.80;85.70;;;;;;5054104;28;20443;-69
2023/07/18 06:30:31;;;;;;;8.00;5.97;;;21.90;85.30;;;;;;5053227;28;20515;-69
2023/07/18 06:32:59;;;;;;;9.00;6.50;;;21.90;84.40;;;;;;5053108;28;20534;-70
2023/07/18 06:35:26;;;;;;;14.00;5.77;;;22.00;84.60;;;;;;5052972;28;20445;-69
2023/07/18 06:37:53;;;;;;;9.73;6.50;;;22.00;84.60;;;;;;5054221;28;20476;-70
2023/07/18 06:40:20;;;;;;;7.83;5.57;;;22.10;84.90;;;;;;5054949;28;20434;-69
2023/07/18 06:42:51;;;;;;;8.20;5.67;;;22.30;85.00;;;;;;5053954;28;20563;-69
2023/07/18 06:45:20;;;;;;;7.53;5.57;;;22.30;84.20;;;;;;5054866;28;20499;-71
2023/07/18 06:47:47;;;;;;;9.70;5.37;;;22.50;84.00;;;;;;5054994;28;20523;-71
2023/07/18 06:50:14;;;;;;;8.77;6.33;;;22.60;84.60;;;;;;5055026;28;20845;-71
2023/07/18 06:52:41;;;;;;;11.83;5.27;;;22.60;83.30;;;;;;5054777;28;20444;-71
2023/07/18 06:55:10;;;;;;;7.37;5.10;;;22.70;83.10;;;;;;5054830;28;20786;-71
2023/07/18 06:57:38;;;;;;;6.30;5.30;;;22.80;82.60;;;;;;5054737;28;20440;-71
2023/07/18 07:00:06;;;;;;;11.53;6.33;;;22.90;82.10;;;;;;5051382;28;20432;-71
2023/07/18 07:02:39;;;;;;;9.83;6.03;;;23.00;82.20;;;;;;5054220;28;20638;-71
2023/07/18 07:05:06;;;;;;;6.80;4.87;;;22.90;78.30;;;;;;5054750;28;20540;-71
2023/07/18 07:07:33;;;;;;;9.77;5.27;;;22.90;78.90;;;;;;5054371;28;20537;-71
2023/07/18 07:10:00;;;;;;;10.13;5.93;;;22.90;79.30;;;;;;5053889;28;20556;-71
2023/07/18 07:12:34;;;;;;;7.87;5.27;;;23.00;79.60;;;;;;5054122;28;20440;-71
2023/07/18 07:15:01;;;;;;;8.00;5.63;;;23.10;78.80;;;;;;5054489;28;20487;-71
2023/07/18 07:17:30;;;;;;;6.40;4.70;;;23.30;79.40;;;;;;5053832;28;20474;-71
2023/07/18 07:19:58;;;;;;;7.20;4.77;;;23.30;79.80;;;;;;5053859;28;20869;-71
2023/07/18 07:22:28;;;;;;;8.90;5.60;;;23.40;80.00;;;;;;5054373;28;20568;-71
2023/07/18 07:24:56;;;;;;;28.37;18.07;;;23.50;79.90;;;;;;5053835;28;20509;-71
2023/07/18 07:27:28;;;;;;;18.13;13.10;;;23.70;79.20;;;;;;5053572;28;20444;-71
2023/07/18 07:29:55;;;;;;;8.30;5.87;;;23.70;75.30;;;;;;5054089;28;20429;-71
2023/07/18 07:32:22;;;;;;;7.10;5.60;;;23.80;75.50;;;;;;5052951;28;20523;-71
2023/07/18 07:34:49;;;;;;;10.93;5.60;;;23.90;75.60;;;;;;5054083;28;20501;-71
2023/07/18 07:37:18;;;;;;;9.70;5.93;;;24.00;75.10;;;;;;5054078;28;20520;-71
2023/07/18 07:39:45;;;;;;;9.80;4.83;;;24.00;75.40;;;;;;5054022;28;20914;-71
2023/07/18 07:42:12;;;;;;;10.53;5.70;;;24.10;74.20;;;;;;5053937;28;20481;-71
2023/07/18 07:44:46;;;;;;;10.43;5.00;;;24.20;74.10;;;;;;5053834;28;20441;-71
2023/07/18 07:47:13;;;;;;;9.33;6.10;;;24.20;74.40;;;;;;5053778;28;20508;-71
2023/07/18 07:49:40;;;;;;;6.73;4.70;;;24.30;74.50;;;;;;5053797;28;20853;-71
2023/07/18 07:52:08;;;;;;;11.07;7.43;;;24.30;75.20;;;;;;5053394;28;20449;-71
2023/07/18 07:54:36;;;;;;;10.90;6.70;;;24.50;69.90;;;;;;5053457;28;20472;-71
2023/07/18 07:57:05;;;;;;;7.27;4.90;;;24.50;69.60;;;;;;5053230;28;20519;-71
2023/07/18 07:59:37;;;;;;;8.43;5.27;;;24.60;69.80;;;;;;5053286;28;20531;-71
2023/07/18 08:02:06;;;;;;;10.23;5.10;;;24.70;68.80;;;;;;5053487;28;20554;-71
2023/07/18 08:04:34;;;;;;;11.07;4.63;;;24.80;69.30;;;;;;5053200;28;20558;-71
2023/07/18 08:07:01;;;;;;;7.27;5.83;;;24.90;68.80;;;;;;5053406;28;20436;-71
2023/07/18 08:09:28;;;;;;;7.03;5.77;;;25.00;69.20;;;;;;5053153;28;20542;-71
2023/07/18 08:11:56;;;;;;;10.73;6.13;;;25.10;68.60;;;;;;5053456;28;20441;-71
2023/07/18 08:14:23;;;;;;;10.57;5.90;;;25.20;68.60;;;;;;5053349;28;20472;-71
2023/07/18 08:16:50;;;;;;;7.17;4.43;;;25.30;68.50;;;;;;5053457;28;20536;-71
2023/07/18 08:19:17;;;;;;;5.77;4.83;;;25.40;67.90;;;;;;5053403;28;20469;-71
2023/07/18 08:21:44;;;;;;;8.10;4.77;;;25.50;68.80;;;;;;5053411;28;20465;-71
2023/07/18 08:24:11;;;;;;;9.03;5.60;;;25.60;67.50;;;;;;5053376;28;20480;-71
2023/07/18 08:26:38;;;;;;;8.70;4.93;;;25.80;64.80;;;;;;5053414;28;20437;-71
2023/07/18 08:29:07;;;;;;;11.20;5.83;;;25.80;64.90;;;;;;5052917;28;20443;-71
2023/07/18 08:31:34;;;;;;;6.50;4.80;;;25.90;62.90;;;;;;5052868;28;20477;-71
2023/07/18 08:34:01;;;;;;;13.43;5.30;;;25.90;62.90;;;;;;5053211;28;20780;-71
2023/07/18 08:36:29;;;;;;;11.50;6.30;;;26.00;64.20;;;;;;5053243;28;20473;-71
2023/07/18 08:38:56;;;;;;;8.57;4.90;;;26.10;62.60;;;;;;5053250;28;20520;-71
2023/07/18 08:41:23;;;;;;;8.23;6.07;;;26.20;63.10;;;;;;5053019;28;20436;-71
2023/07/18 08:43:50;;;;;;;7.43;5.33;;;26.30;64.30;;;;;;5055828;28;20441;-71
2023/07/18 08:46:19;;;;;;;10.23;5.67;;;26.50;62.70;;;;;;5056879;28;20548;-71
2023/07/18 08:48:47;;;;;;;8.40;4.70;;;26.60;63.10;;;;;;5057241;28;20437;-71
2023/07/18 08:51:14;;;;;;;6.93;5.40;;;26.70;63.10;;;;;;5057122;28;20433;-71
2023/07/18 08:53:42;;;;;;;7.23;5.57;;;26.80;61.90;;;;;;5056704;28;20437;-71
2023/07/18 08:56:09;;;;;;;10.20;6.50;;;26.90;62.50;;;;;;5056544;28;20861;-71
2023/07/18 08:58:37;;;;;;;8.57;5.27;;;26.90;59.50;;;;;;5056543;28;20476;-71
2023/07/18 09:01:04;;;;;;;9.50;5.50;;;27.00;60.60;;;;;;5057045;28;20810;-71
2023/07/18 09:03:38;;;;;;;8.47;4.53;;;27.10;59.50;;;;;;5056445;28;21069;-71
2023/07/18 09:06:17;;;;;;;7.00;5.40;;;27.20;60.40;;;;;;5056626;28;21001;-71
2023/07/18 09:08:46;;;;;;;9.50;4.63;;;27.30;59.90;;;;;;5056264;28;20425;-71
2023/07/18 09:11:19;;;;;;;5.70;4.70;;;27.40;60.30;;;;;;5056480;28;20465;-71
2023/07/18 09:13:46;;;;;;;6.90;5.17;;;27.40;59.10;;;;;;5056501;28;20420;-71
2023/07/18 09:16:20;;;;;;;7.90;5.07;;;27.50;59.80;;;;;;5056661;28;20437;-72
2023/07/18 09:18:51;;;;;;;9.97;5.80;;;27.60;59.40;;;;;;5056283;28;20456;-72
2023/07/18 09:21:18;;;;;;;9.40;5.70;;;27.80;59.80;;;;;;5055882;28;20429;-71
2023/07/18 09:23:47;;;;;;;7.60;5.63;;;27.90;59.70;;;;;;5056485;28;20477;-72
2023/07/18 09:26:17;;;;;;;7.20;5.60;;;28.00;59.60;;;;;;5056425;28;20523;-71
2023/07/18 09:28:44;;;;;;;11.10;5.80;;;28.20;58.30;;;;;;5055965;28;20434;-71
2023/07/18 09:31:18;;;;;;;7.47;4.73;;;28.20;57.30;;;;;;5056343;28;20460;-71
2023/07/18 09:33:47;;;;;;;11.77;5.40;;;28.30;59.00;;;;;;5055965;28;20444;-71
2023/07/18 09:36:21;;;;;;;5.60;5.00;;;28.40;59.10;;;;;;5055945;28;20977;-74
2023/07/18 09:38:49;;;;;;;8.57;6.30;;;28.50;59.00;;;;;;5056366;28;20516;-71
2023/07/18 09:41:23;;;;;;;8.60;6.33;;;28.60;59.50;;;;;;5055923;28;21003;-71
2023/07/18 09:43:53;;;;;;;11.00;5.50;;;28.80;58.40;;;;;;5056098;28;20467;-71
2023/07/18 09:46:26;;;;;;;6.03;5.40;;;28.90;58.30;;;;;;5056320;28;20520;-71
2023/07/18 09:48:53;;;;;;;7.73;6.10;;;29.10;58.20;;;;;;5056071;28;20508;-72
2023/07/18 09:51:24;;;;;;;6.60;4.90;;;29.20;57.70;;;;;;5056121;28;20858;-71
2023/07/18 09:53:56;;;;;;;6.23;4.73;;;29.20;56.60;;;;;;5055467;28;20513;-71
2023/07/18 09:56:28;;;;;;;10.03;5.70;;;29.30;57.70;;;;;;5055389;28;20426;-71
2023/07/18 09:58:57;;;;;;;8.00;6.50;;;29.50;57.40;;;;;;5055916;28;20429;-71
2023/07/18 10:01:26;;;;;;;6.67;5.23;;;29.60;57.50;;;;;;5055576;28;20417;-71
2023/07/18 10:03:54;;;;;;;9.47;5.07;;;29.70;55.90;;;;;;5055174;28;20468;-71
2023/07/18 10:06:23;;;;;;;12.53;5.47;;;29.70;54.70;;;;;;5055540;28;20437;-71
2023/07/18 10:08:50;;;;;;;5.43;4.60;;;29.80;54.20;;;;;;5055501;28;20524;-71
2023/07/18 10:11:17;;;;;;;6.10;4.93;;;29.90;54.40;;;;;;5054271;28;20904;-71
2023/07/18 10:14:12;;;;;;;7.43;5.07;;;30.00;54.40;;;;;;5055300;28;20445;-71
2023/07/18 10:16:42;;;;;;;7.37;5.07;;;30.10;54.60;;;;;;5055628;28;20844;-71
2023/07/18 10:19:19;;;;;;;6.70;4.83;;;30.30;54.40;;;;;;5055235;28;20448;-71
2023/07/18 10:21:48;;;;;;;11.43;7.90;;;30.30;53.50;;;;;;5055557;28;20479;-71
2023/07/18 10:24:26;;;;;;;10.93;7.63;;;30.40;52.50;;;;;;5055150;28;20932;-71
2023/07/18 10:26:55;;;;;;;8.00;5.90;;;30.40;50.70;;;;;;5055431;28;20425;-71
2023/07/18 10:29:22;;;;;;;5.77;4.63;;;30.40;50.80;;;;;;5054894;28;20520;-71
2023/07/18 10:31:49;;;;;;;7.93;5.47;;;30.40;50.90;;;;;;5055264;28;20468;-71
2023/07/18 10:34:18;;;;;;;5.80;5.03;;;30.50;52.80;;;;;;5055187;28;20437;-71
2023/07/18 10:36:56;;;;;;;8.60;5.20;;;30.60;53.20;;;;;;5055253;28;20438;-71
2023/07/18 10:39:38;;;;;;;6.60;4.97;;;30.70;50.20;;;;;;5055254;28;20527;-71
2023/07/18 10:42:09;;;;;;;8.20;5.37;;;30.70;49.90;;;;;;5054685;28;20452;-74
2023/07/18 10:44:37;;;;;;;9.00;5.50;;;30.80;50.50;;;;;;5054609;28;21024;-71
2023/07/18 10:47:15;;;;;;;7.90;5.53;;;30.80;49.40;;;;;;5054671;28;20447;-71
2023/07/18 10:49:42;;;;;;;7.53;4.80;;;30.90;49.60;;;;;;5055005;28;20778;-71
2023/07/18 10:52:10;;;;;;;11.60;5.53;;;31.00;49.30;;;;;;5054551;28;20650;-71
2023/07/18 10:54:37;;;;;;;8.33;5.40;;;31.00;49.20;;;;;;5054811;28;20472;-71
2023/07/18 10:57:05;;;;;;;6.93;5.57;;;31.00;48.40;;;;;;5054781;28;20858;-71
2023/07/18 10:59:32;;;;;;;9.13;5.27;;;31.00;48.40;;;;;;5054491;28;20528;-72
2023/07/18 11:02:03;;;;;;;6.13;4.80;;;31.00;49.40;;;;;;5054277;28;20528;-71
2023/07/18 11:04:30;;;;;;;5.23;4.43;;;31.10;50.40;;;;;;5054722;28;20492;-71
2023/07/18 11:06:59;;;;;;;5.67;4.60;;;31.20;48.60;;;;;;5054547;28;20537;-71
2023/07/18 11:09:27;;;;;;;6.70;4.90;;;31.30;49.50;;;;;;5053028;28;21001;-71
2023/07/18 11:11:55;;;;;;;11.43;5.63;;;31.40;50.60;;;;;;5054088;28;20465;-71
2023/07/18 11:14:23;;;;;;;6.83;5.80;;;31.40;48.00;;;;;;5054542;28;20517;-71
2023/07/18 11:16:50;;;;;;;7.50;5.33;;;31.30;48.20;;;;;;5051492;28;20448;-71
2023/07/18 11:19:19;;;;;;;10.50;6.37;;;31.40;50.50;;;;;;5052800;28;20452;-71
2023/07/18 11:21:49;;;;;;;14.57;6.50;;;31.60;49.80;;;;;;5053403;28;20524;-73
2023/07/18 11:24:16;;;;;;;6.20;5.03;;;31.70;49.50;;;;;;5050716;28;20605;-71
2023/07/18 11:26:45;;;;;;;5.50;5.00;;;31.70;47.80;;;;;;5052854;28;20524;-71
2023/07/18 11:29:12;;;;;;;8.60;4.90;;;31.80;47.80;;;;;;5053681;28;20469;-71
2023/07/18 11:31:40;;;;;;;7.03;5.40;;;31.70;47.20;;;;;;5053606;28;20525;-72
2023/07/18 11:34:08;;;;;;;6.77;4.97;;;31.70;47.60;;;;;;5052556;28;20469;-71
2023/07/18 11:36:37;;;;;;;8.43;5.40;;;31.80;48.80;;;;;;5051191;28;20477;-71
2023/07/18 11:39:18;;;;;;;6.97;5.23;;;31.90;49.10;;;;;;5052228;28;20440;-72
2023/07/18 11:41:47;;;;;;;5.40;4.47;;;32.00;49.80;;;;;;5050345;28;20950;-71
2023/07/18 11:44:24;;;;;;;7.00;5.37;;;32.00;47.80;;;;;;5053266;28;21016;-71
2023/07/18 11:46:53;;;;;;;6.70;5.20;;;32.00;47.70;;;;;;5052247;28;20854;-71
2023/07/18 11:49:33;;;;;;;6.80;5.27;;;32.00;46.30;;;;;;5053719;28;20528;-71
2023/07/18 11:52:08;;;;;;;6.33;5.13;;;31.90;45.70;;;;;;5052624;28;20837;-72
2023/07/18 11:54:36;;;;;;;8.33;4.90;;;31.80;45.30;;;;;;5053021;28;20436;-71
2023/07/18 11:57:06;;;;;;;7.43;5.03;;;31.80;46.50;;;;;;5053153;28;20430;-71
2023/07/18 11:59:36;;;;;;;6.80;4.93;;;31.80;46.90;;;;;;5053516;28;20469;-71
2023/07/18 12:02:03;;;;;;;9.13;5.40;;;31.80;48.00;;;;;;5053229;28;20478;-71
2023/07/18 12:04:32;;;;;;;7.43;4.93;;;31.90;48.30;;;;;;5053457;28;20476;-71
2023/07/18 12:07:01;;;;;;;8.67;5.50;;;31.90;47.00;;;;;;5053518;28;20445;-71
2023/07/18 12:09:29;;;;;;;7.93;4.77;;;31.90;45.20;;;;;;5052605;28;20549;-71
2023/07/18 12:11:56;;;;;;;6.30;4.57;;;31.80;44.80;;;;;;5053065;28;20476;-71
2023/07/18 12:14:25;;;;;;;8.77;6.00;;;31.70;44.50;;;;;;5052970;28;20445;-71
2023/07/18 12:16:52;;;;;;;8.57;5.53;;;31.50;45.30;;;;;;5053247;28;20470;-71
2023/07/18 12:19:21;;;;;;;6.50;4.63;;;31.30;47.70;;;;;;5053012;28;20476;-71
2023/07/18 12:21:48;;;;;;;7.40;5.03;;;31.10;48.70;;;;;;5053040;28;20460;-71
2023/07/18 12:24:15;;;;;;;11.00;5.80;;;30.90;48.60;;;;;;5052297;28;20582;-71
2023/07/18 12:26:43;;;;;;;7.03;5.83;;;30.60;49.90;;;;;;5053305;28;20813;-71
2023/07/18 12:29:10;;;;;;;10.97;6.13;;;30.50;49.90;;;;;;5052806;28;20928;-71
2023/07/18 12:31:43;;;;;;;8.70;5.67;;;30.40;50.30;;;;;;5052809;28;20491;-72
2023/07/18 12:34:10;;;;;;;7.00;5.63;;;30.40;51.30;;;;;;5052874;28;20433;-71
2023/07/18 12:36:38;;;;;;;8.40;5.67;;;30.30;51.60;;;;;;5053283;28;20526;-71
2023/07/18 12:39:06;;;;;;;5.70;5.10;;;30.20;51.90;;;;;;5053099;28;20525;-71
2023/07/18 12:41:33;;;;;;;5.53;5.00;;;30.10;51.70;;;;;;5053062;28;20520;-71
2023/07/18 12:44:00;;;;;;;7.30;4.93;;;30.10;51.70;;;;;;5052866;28;20485;-71
2023/07/18 12:46:27;;;;;;;10.50;4.70;;;30.00;51.40;;;;;;5053104;28;20461;-71
2023/07/18 12:48:56;;;;;;;5.90;5.30;;;29.90;51.20;;;;;;5053019;28;20438;-71
2023/07/18 12:51:23;;;;;;;7.03;4.60;;;29.70;51.30;;;;;;5052711;28;20489;-71
2023/07/18 12:53:51;;;;;;;5.80;4.53;;;29.40;51.00;;;;;;5052523;28;20445;-71
2023/07/18 12:56:18;;;;;;;8.03;5.03;;;29.30;51.00;;;;;;5052982;28;20495;-71
2023/07/18 12:58:49;;;;;;;7.10;4.87;;;29.10;51.30;;;;;;5052674;28;20524;-71